sensor_id;sensor_type;location;lat;lon;timestamp;pressure;altitude;pressure_sealevel;temperature;humidity
54592;BME280;40488;48.558;18.150;2022-12-18T00:00:09;101006.78;;;-2.29;75.27
54592;BME280;40488;48.558;18.150;2022-12-18T00:02:40;101001.78;;;-2.29;75.07
54592;BME280;40488;48.558;18.150;2022-12-18T00:05:09;101005.72;;;-2.33;74.87
54592;BME280;40488;48.558;18.150;2022-12-18T00:07:38;101011.34;;;-2.35;75.00
54592;BME280;40488;48.558;18.150;2022-12-18T00:10:07;101015.47;;;-2.36;74.92
54592;BME280;40488;48.558;18.150;2022-12-18T00:12:37;101026.34;;;-2.35;75.17
54592;BME280;40488;48.558;18.150;2022-12-18T00:15:07;101027.00;;;-2.38;74.86
54592;BME280;40488;48.558;18.150;2022-12-18T00:17:35;101027.66;;;-2.40;74.76
54592;BME280;40488;48.558;18.150;2022-12-18T00:20:05;101039.38;;;-2.39;75.05
54592;BME280;40488;48.558;18.150;2022-12-18T00:22:33;101041.78;;;-2.41;74.81
54592;BME280;40488;48.558;18.150;2022-12-18T00:25:02;101042.41;;;-2.43;74.82
54592;BME280;40488;48.558;18.150;2022-12-18T00:27:31;101055.66;;;-2.44;74.72
54592;BME280;40488;48.558;18.150;2022-12-18T00:30:01;101062.19;;;-2.46;74.52
54592;BME280;40488;48.558;18.150;2022-12-18T00:32:30;101062.19;;;-2.46;74.82
54592;BME280;40488;48.558;18.150;2022-12-18T00:34:58;101061.53;;;-2.44;75.14
54592;BME280;40488;48.558;18.150;2022-12-18T00:37:29;101060.66;;;-2.44;74.66
54592;BME280;40488;48.558;18.150;2022-12-18T00:39:57;101060.78;;;-2.43;74.71
54592;BME280;40488;48.558;18.150;2022-12-18T00:42:28;101067.66;;;-2.40;74.69
54592;BME280;40488;48.558;18.150;2022-12-18T00:45:08;101050.47;;;-2.47;74.52
54592;BME280;40488;48.558;18.150;2022-12-18T00:47:39;101076.13;;;-2.38;74.10
54592;BME280;40488;48.558;18.150;2022-12-18T00:50:09;101075.88;;;-2.41;74.05
54592;BME280;40488;48.558;18.150;2022-12-18T00:52:38;101074.81;;;-2.45;74.41
54592;BME280;40488;48.558;18.150;2022-12-18T00:55:07;101084.81;;;-2.45;74.28
54592;BME280;40488;48.558;18.150;2022-12-18T00:57:36;101087.19;;;-2.46;74.37
54592;BME280;40488;48.558;18.150;2022-12-18T01:00:10;101098.06;;;-2.46;74.22
54592;BME280;40488;48.558;18.150;2022-12-18T01:02:40;101108.47;;;-2.51;74.02
54592;BME280;40488;48.558;18.150;2022-12-18T01:05:12;101109.09;;;-2.54;74.15
54592;BME280;40488;48.558;18.150;2022-12-18T01:07:41;101116.50;;;-2.55;73.89
54592;BME280;40488;48.558;18.150;2022-12-18T01:10:12;101107.88;;;-2.59;74.00
54592;BME280;40488;48.558;18.150;2022-12-18T01:12:41;101117.03;;;-2.59;74.32
54592;BME280;40488;48.558;18.150;2022-12-18T01:15:13;101118.19;;;-2.66;74.07
54592;BME280;40488;48.558;18.150;2022-12-18T01:17:43;101114.94;;;-2.65;74.08
54592;BME280;40488;48.558;18.150;2022-12-18T01:20:12;101117.44;;;-2.65;73.78
54592;BME280;40488;48.558;18.150;2022-12-18T01:22:40;101116.69;;;-2.64;74.17
54592;BME280;40488;48.558;18.150;2022-12-18T01:25:09;101112.09;;;-2.69;74.46
54592;BME280;40488;48.558;18.150;2022-12-18T01:27:38;101113.16;;;-2.78;74.28
54592;BME280;40488;48.558;18.150;2022-12-18T01:30:07;101118.56;;;-2.83;74.33
54592;BME280;40488;48.558;18.150;2022-12-18T01:32:38;101121.72;;;-2.86;74.32
54592;BME280;40488;48.558;18.150;2022-12-18T01:35:07;101118.75;;;-2.92;74.02
54592;BME280;40488;48.558;18.150;2022-12-18T01:37:36;101130.25;;;-2.94;74.63
54592;BME280;40488;48.558;18.150;2022-12-18T01:40:06;101134.78;;;-3.00;74.56
54592;BME280;40488;48.558;18.150;2022-12-18T01:42:35;101135.66;;;-2.99;74.38
54592;BME280;40488;48.558;18.150;2022-12-18T01:45:21;101140.25;;;-2.94;74.94
54592;BME280;40488;48.558;18.150;2022-12-18T01:47:55;101137.97;;;-2.91;74.71
54592;BME280;40488;48.558;18.150;2022-12-18T01:50:30;101145.00;;;-2.97;74.99
54592;BME280;40488;48.558;18.150;2022-12-18T01:53:05;101147.78;;;-3.04;74.45
54592;BME280;40488;48.558;18.150;2022-12-18T01:55:38;101145.13;;;-3.17;75.03
54592;BME280;40488;48.558;18.150;2022-12-18T01:58:09;101158.53;;;-3.26;75.09
54592;BME280;40488;48.558;18.150;2022-12-18T02:00:38;101154.91;;;-3.30;75.06
54592;BME280;40488;48.558;18.150;2022-12-18T02:03:08;101150.91;;;-3.28;74.96
54592;BME280;40488;48.558;18.150;2022-12-18T02:05:44;101158.38;;;-3.28;75.05
54592;BME280;40488;48.558;18.150;2022-12-18T02:08:20;101162.63;;;-3.27;75.49
54592;BME280;40488;48.558;18.150;2022-12-18T02:10:59;101162.88;;;-3.24;74.90
54592;BME280;40488;48.558;18.150;2022-12-18T02:13:38;101161.13;;;-3.25;75.23
54592;BME280;40488;48.558;18.150;2022-12-18T02:16:12;101161.75;;;-3.27;75.16
54592;BME280;40488;48.558;18.150;2022-12-18T02:18:49;101163.25;;;-3.29;74.88
54592;BME280;40488;48.558;18.150;2022-12-18T02:21:28;101165.41;;;-3.34;75.20
54592;BME280;40488;48.558;18.150;2022-12-18T02:24:17;101181.78;;;-3.48;75.11
54592;BME280;40488;48.558;18.150;2022-12-18T02:26:50;101188.44;;;-3.58;75.01
54592;BME280;40488;48.558;18.150;2022-12-18T02:29:24;101180.97;;;-3.68;75.01
54592;BME280;40488;48.558;18.150;2022-12-18T02:31:57;101180.09;;;-3.79;74.94
54592;BME280;40488;48.558;18.150;2022-12-18T02:34:29;101178.88;;;-3.84;75.30
54592;BME280;40488;48.558;18.150;2022-12-18T02:37:03;101180.91;;;-4.00;75.43
54592;BME280;40488;48.558;18.150;2022-12-18T02:39:37;101175.03;;;-3.90;76.08
54592;BME280;40488;48.558;18.150;2022-12-18T02:42:12;101179.38;;;-3.78;76.35
54592;BME280;40488;48.558;18.150;2022-12-18T02:44:45;101179.00;;;-3.72;75.76
54592;BME280;40488;48.558;18.150;2022-12-18T02:47:22;101174.13;;;-3.71;76.30
54592;BME280;40488;48.558;18.150;2022-12-18T02:50:02;101184.59;;;-3.65;76.34
54592;BME280;40488;48.558;18.150;2022-12-18T02:52:41;101179.22;;;-3.69;75.74
54592;BME280;40488;48.558;18.150;2022-12-18T02:55:21;101179.47;;;-3.76;75.84
54592;BME280;40488;48.558;18.150;2022-12-18T02:58:04;101196.22;;;-3.85;76.26
54592;BME280;40488;48.558;18.150;2022-12-18T03:00:40;101194.72;;;-3.83;76.24
54592;BME280;40488;48.558;18.150;2022-12-18T03:03:15;101189.09;;;-3.81;75.94
54592;BME280;40488;48.558;18.150;2022-12-18T03:05:51;101198.19;;;-3.81;76.40
54592;BME280;40488;48.558;18.150;2022-12-18T03:08:23;101197.09;;;-3.85;76.38
54592;BME280;40488;48.558;18.150;2022-12-18T03:11:01;101201.19;;;-3.85;75.90
54592;BME280;40488;48.558;18.150;2022-12-18T03:13:36;101195.47;;;-3.94;76.43
54592;BME280;40488;48.558;18.150;2022-12-18T03:16:11;101199.75;;;-4.03;76.08
54592;BME280;40488;48.558;18.150;2022-12-18T03:18:46;101200.59;;;-4.03;76.11
54592;BME280;40488;48.558;18.150;2022-12-18T03:21:19;101210.19;;;-4.08;76.10
54592;BME280;40488;48.558;18.150;2022-12-18T03:23:52;101222.53;;;-4.19;76.38
54592;BME280;40488;48.558;18.150;2022-12-18T03:26:26;101214.94;;;-4.21;76.79
54592;BME280;40488;48.558;18.150;2022-12-18T03:29:04;101217.69;;;-4.28;76.44
54592;BME280;40488;48.558;18.150;2022-12-18T03:31:39;101212.69;;;-4.28;76.71
54592;BME280;40488;48.558;18.150;2022-12-18T03:34:13;101213.06;;;-4.33;76.65
54592;BME280;40488;48.558;18.150;2022-12-18T03:36:46;101224.63;;;-4.34;76.87
54592;BME280;40488;48.558;18.150;2022-12-18T03:39:15;101224.63;;;-4.34;76.94
54592;BME280;40488;48.558;18.150;2022-12-18T03:41:55;101226.47;;;-4.41;76.89
54592;BME280;40488;48.558;18.150;2022-12-18T03:44:40;101232.31;;;-4.51;76.76
54592;BME280;40488;48.558;18.150;2022-12-18T03:47:15;101228.59;;;-4.56;77.34
54592;BME280;40488;48.558;18.150;2022-12-18T03:49:48;101231.81;;;-4.57;77.45
54592;BME280;40488;48.558;18.150;2022-12-18T03:52:25;101224.25;;;-4.58;77.08
54592;BME280;40488;48.558;18.150;2022-12-18T03:54:58;101228.59;;;-4.56;77.22
54592;BME280;40488;48.558;18.150;2022-12-18T03:57:29;101234.59;;;-4.54;77.70
54592;BME280;40488;48.558;18.150;2022-12-18T04:00:06;101239.56;;;-4.44;77.64
54592;BME280;40488;48.558;18.150;2022-12-18T04:02:56;101232.50;;;-4.39;77.50
54592;BME280;40488;48.558;18.150;2022-12-18T04:05:33;101234.13;;;-4.30;77.61
54592;BME280;40488;48.558;18.150;2022-12-18T04:08:06;101240.34;;;-4.25;77.41
54592;BME280;40488;48.558;18.150;2022-12-18T04:10:39;101248.31;;;-4.19;76.85
54592;BME280;40488;48.558;18.150;2022-12-18T04:13:09;101254.56;;;-4.14;76.90
54592;BME280;40488;48.558;18.150;2022-12-18T04:15:40;101259.66;;;-4.12;76.81
54592;BME280;40488;48.558;18.150;2022-12-18T04:18:14;101258.78;;;-4.13;76.72
54592;BME280;40488;48.558;18.150;2022-12-18T04:20:43;101267.66;;;-4.16;76.41
54592;BME280;40488;48.558;18.150;2022-12-18T04:23:11;101265.03;;;-4.18;76.30
54592;BME280;40488;48.558;18.150;2022-12-18T04:25:40;101269.50;;;-4.24;76.21
54592;BME280;40488;48.558;18.150;2022-12-18T04:28:14;101268.41;;;-4.27;76.31
54592;BME280;40488;48.558;18.150;2022-12-18T04:30:45;101269.75;;;-4.21;76.63
54592;BME280;40488;48.558;18.150;2022-12-18T04:33:14;101276.72;;;-4.17;76.68
54592;BME280;40488;48.558;18.150;2022-12-18T04:35:43;101284.97;;;-4.18;76.34
54592;BME280;40488;48.558;18.150;2022-12-18T04:38:13;101294.69;;;-4.21;75.92
54592;BME280;40488;48.558;18.150;2022-12-18T04:40:43;101291.94;;;-4.24;75.84
54592;BME280;40488;48.558;18.150;2022-12-18T04:43:20;101286.22;;;-4.23;76.11
54592;BME280;40488;48.558;18.150;2022-12-18T04:45:50;101294.06;;;-4.18;76.36
54592;BME280;40488;48.558;18.150;2022-12-18T04:48:20;101281.47;;;-4.30;76.11
54592;BME280;40488;48.558;18.150;2022-12-18T04:50:48;101275.22;;;-4.35;75.86
54592;BME280;40488;48.558;18.150;2022-12-18T04:53:17;101278.97;;;-4.30;76.12
54592;BME280;40488;48.558;18.150;2022-12-18T04:55:45;101285.84;;;-4.27;76.21
54592;BME280;40488;48.558;18.150;2022-12-18T04:58:14;101293.31;;;-4.27;76.09
54592;BME280;40488;48.558;18.150;2022-12-18T05:00:43;101298.91;;;-4.30;76.27
54592;BME280;40488;48.558;18.150;2022-12-18T05:03:13;101293.66;;;-4.33;75.83
54592;BME280;40488;48.558;18.150;2022-12-18T05:05:41;101295.63;;;-4.39;75.63
54592;BME280;40488;48.558;18.150;2022-12-18T05:08:10;101301.38;;;-4.40;76.32
54592;BME280;40488;48.558;18.150;2022-12-18T05:10:39;101298.00;;;-4.40;75.97
54592;BME280;40488;48.558;18.150;2022-12-18T05:13:07;101300.84;;;-4.46;76.24
54592;BME280;40488;48.558;18.150;2022-12-18T05:15:36;101303.81;;;-4.50;75.79
54592;BME280;40488;48.558;18.150;2022-12-18T05:18:05;101306.81;;;-4.54;75.80
54592;BME280;40488;48.558;18.150;2022-12-18T05:20:35;101303.06;;;-4.59;75.94
54592;BME280;40488;48.558;18.150;2022-12-18T05:23:05;101317.50;;;-4.55;75.91
54592;BME280;40488;48.558;18.150;2022-12-18T05:25:33;101318.88;;;-4.58;75.90
54592;BME280;40488;48.558;18.150;2022-12-18T05:28:02;101320.50;;;-4.59;76.27
54592;BME280;40488;48.558;18.150;2022-12-18T05:30:31;101322.09;;;-4.59;76.39
54592;BME280;40488;48.558;18.150;2022-12-18T05:32:59;101327.19;;;-4.68;76.45
54592;BME280;40488;48.558;18.150;2022-12-18T05:35:28;101328.66;;;-4.70;76.24
54592;BME280;40488;48.558;18.150;2022-12-18T05:37:58;101328.31;;;-4.64;75.98
54592;BME280;40488;48.558;18.150;2022-12-18T05:40:27;101329.19;;;-4.64;76.41
54592;BME280;40488;48.558;18.150;2022-12-18T05:42:56;101340.63;;;-4.66;75.98
54592;BME280;40488;48.558;18.150;2022-12-18T05:45:25;101334.78;;;-4.66;76.49
54592;BME280;40488;48.558;18.150;2022-12-18T05:47:54;101338.59;;;-4.70;76.24
54592;BME280;40488;48.558;18.150;2022-12-18T05:50:23;101345.84;;;-4.73;76.31
54592;BME280;40488;48.558;18.150;2022-12-18T05:52:52;101335.88;;;-4.73;76.04
54592;BME280;40488;48.558;18.150;2022-12-18T05:55:22;101341.09;;;-4.70;76.36
54592;BME280;40488;48.558;18.150;2022-12-18T05:57:51;101349.31;;;-4.71;75.84
54592;BME280;40488;48.558;18.150;2022-12-18T06:00:20;101348.31;;;-4.73;76.17
54592;BME280;40488;48.558;18.150;2022-12-18T06:02:50;101361.84;;;-4.80;76.50
54592;BME280;40488;48.558;18.150;2022-12-18T06:05:18;101362.72;;;-4.79;76.06
54592;BME280;40488;48.558;18.150;2022-12-18T06:07:47;101369.47;;;-4.78;75.90
54592;BME280;40488;48.558;18.150;2022-12-18T06:10:16;101373.28;;;-4.82;76.29
54592;BME280;40488;48.558;18.150;2022-12-18T06:12:46;101380.38;;;-4.86;76.31
54592;BME280;40488;48.558;18.150;2022-12-18T06:15:15;101382.25;;;-4.84;76.26
54592;BME280;40488;48.558;18.150;2022-12-18T06:17:44;101377.59;;;-4.89;76.41
54592;BME280;40488;48.558;18.150;2022-12-18T06:20:12;101392.09;;;-4.85;76.31
54592;BME280;40488;48.558;18.150;2022-12-18T06:22:41;101391.53;;;-4.91;76.21
54592;BME280;40488;48.558;18.150;2022-12-18T06:25:10;101407.28;;;-5.01;76.33
54592;BME280;40488;48.558;18.150;2022-12-18T06:27:39;101402.50;;;-5.08;76.71
54592;BME280;40488;48.558;18.150;2022-12-18T06:30:11;101406.75;;;-5.07;76.78
54592;BME280;40488;48.558;18.150;2022-12-18T06:32:41;101408.84;;;-5.11;76.86
54592;BME280;40488;48.558;18.150;2022-12-18T06:35:10;101409.28;;;-5.15;76.71
54592;BME280;40488;48.558;18.150;2022-12-18T06:37:39;101409.88;;;-5.18;76.75
54592;BME280;40488;48.558;18.150;2022-12-18T06:40:08;101411.31;;;-5.11;77.26
54592;BME280;40488;48.558;18.150;2022-12-18T06:42:37;101417.16;;;-5.11;77.23
54592;BME280;40488;48.558;18.150;2022-12-18T06:45:07;101416.63;;;-5.17;76.93
54592;BME280;40488;48.558;18.150;2022-12-18T06:47:38;101414.34;;;-5.24;77.13
54592;BME280;40488;48.558;18.150;2022-12-18T06:50:07;101402.63;;;-5.25;77.40
54592;BME280;40488;48.558;18.150;2022-12-18T06:52:35;101412.78;;;-5.13;77.43
54592;BME280;40488;48.558;18.150;2022-12-18T06:55:05;101413.41;;;-5.16;77.24
54592;BME280;40488;48.558;18.150;2022-12-18T06:57:37;101419.25;;;-5.15;76.94
54592;BME280;40488;48.558;18.150;2022-12-18T07:00:07;101422.59;;;-5.15;77.29
54592;BME280;40488;48.558;18.150;2022-12-18T07:02:38;101434.06;;;-4.98;77.05
54592;BME280;40488;48.558;18.150;2022-12-18T07:05:08;101438.91;;;-4.81;77.53
54592;BME280;40488;48.558;18.150;2022-12-18T07:07:37;101435.00;;;-4.69;77.17
54592;BME280;40488;48.558;18.150;2022-12-18T07:10:06;101446.75;;;-4.58;76.62
54592;BME280;40488;48.558;18.150;2022-12-18T07:12:35;101442.63;;;-4.39;77.01
54592;BME280;40488;48.558;18.150;2022-12-18T07:15:05;101448.03;;;-4.05;76.92
54592;BME280;40488;48.558;18.150;2022-12-18T07:17:33;101450.09;;;-3.71;76.46
54592;BME280;40488;48.558;18.150;2022-12-18T07:20:04;101458.63;;;-3.49;76.29
54592;BME280;40488;48.558;18.150;2022-12-18T07:22:33;101460.91;;;-3.22;75.88
54592;BME280;40488;48.558;18.150;2022-12-18T07:25:02;101467.38;;;-3.04;74.65
54592;BME280;40488;48.558;18.150;2022-12-18T07:27:30;101475.16;;;-2.91;74.45
54592;BME280;40488;48.558;18.150;2022-12-18T07:29:59;101486.84;;;-2.90;73.80
54592;BME280;40488;48.558;18.150;2022-12-18T07:32:27;101488.88;;;-2.86;73.63
54592;BME280;40488;48.558;18.150;2022-12-18T07:34:56;101480.88;;;-2.82;72.86
54592;BME280;40488;48.558;18.150;2022-12-18T07:37:26;101496.22;;;-2.87;72.86
54592;BME280;40488;48.558;18.150;2022-12-18T07:39:55;101491.13;;;-2.89;72.41
54592;BME280;40488;48.558;18.150;2022-12-18T07:42:24;101493.63;;;-2.89;72.29
54592;BME280;40488;48.558;18.150;2022-12-18T07:45:02;101491.84;;;-3.00;72.52
54592;BME280;40488;48.558;18.150;2022-12-18T07:47:34;101499.22;;;-2.91;72.11
54592;BME280;40488;48.558;18.150;2022-12-18T07:50:04;101501.47;;;-2.94;71.88
54592;BME280;40488;48.558;18.150;2022-12-18T07:52:34;101502.97;;;-2.86;72.10
54592;BME280;40488;48.558;18.150;2022-12-18T07:55:04;101505.59;;;-2.75;72.11
54592;BME280;40488;48.558;18.150;2022-12-18T07:57:33;101498.09;;;-2.75;71.77
54592;BME280;40488;48.558;18.150;2022-12-18T08:00:22;101507.84;;;-2.78;71.90
54592;BME280;40488;48.558;18.150;2022-12-18T08:02:51;101512.84;;;-2.78;71.62
54592;BME280;40488;48.558;18.150;2022-12-18T08:05:21;101507.63;;;-2.91;71.19
54592;BME280;40488;48.558;18.150;2022-12-18T08:07:51;101509.47;;;-3.08;71.07
54592;BME280;40488;48.558;18.150;2022-12-18T08:10:20;101516.97;;;-3.08;71.20
54592;BME280;40488;48.558;18.150;2022-12-18T08:12:49;101512.06;;;-3.07;71.42
54592;BME280;40488;48.558;18.150;2022-12-18T08:15:18;101514.72;;;-2.95;71.39
54592;BME280;40488;48.558;18.150;2022-12-18T08:17:47;101514.09;;;-2.83;72.27
54592;BME280;40488;48.558;18.150;2022-12-18T08:20:15;101521.34;;;-2.96;71.33
54592;BME280;40488;48.558;18.150;2022-12-18T08:22:45;101521.34;;;-2.96;71.47
54592;BME280;40488;48.558;18.150;2022-12-18T08:25:15;101524.31;;;-3.00;71.85
54592;BME280;40488;48.558;18.150;2022-12-18T08:27:44;101530.56;;;-2.95;71.42
54592;BME280;40488;48.558;18.150;2022-12-18T08:30:13;101530.31;;;-2.78;72.10
54592;BME280;40488;48.558;18.150;2022-12-18T08:32:42;101526.69;;;-2.71;71.50
54592;BME280;40488;48.558;18.150;2022-12-18T08:35:10;101530.81;;;-2.61;71.59
54592;BME280;40488;48.558;18.150;2022-12-18T08:37:44;101532.31;;;-2.63;71.73
54592;BME280;40488;48.558;18.150;2022-12-18T08:40:13;101541.06;;;-2.58;71.59
54592;BME280;40488;48.558;18.150;2022-12-18T08:42:43;101539.81;;;-2.53;71.29
54592;BME280;40488;48.558;18.150;2022-12-18T08:45:22;101546.81;;;-2.59;71.46
54592;BME280;40488;48.558;18.150;2022-12-18T08:47:51;101545.06;;;-2.71;71.32
54592;BME280;40488;48.558;18.150;2022-12-18T08:50:20;101541.31;;;-2.55;71.85
54592;BME280;40488;48.558;18.150;2022-12-18T08:52:49;101541.78;;;-2.49;71.85
54592;BME280;40488;48.558;18.150;2022-12-18T08:55:18;101533.31;;;-2.51;71.74
54592;BME280;40488;48.558;18.150;2022-12-18T08:57:49;101536.19;;;-2.57;72.23
54592;BME280;40488;48.558;18.150;2022-12-18T09:00:18;101540.53;;;-2.44;71.65
54592;BME280;40488;48.558;18.150;2022-12-18T09:02:47;101534.28;;;-2.39;71.31
54592;BME280;40488;48.558;18.150;2022-12-18T09:05:16;101535.06;;;-2.40;70.90
54592;BME280;40488;48.558;18.150;2022-12-18T09:07:45;101541.53;;;-2.32;70.70
54592;BME280;40488;48.558;18.150;2022-12-18T09:10:14;101545.28;;;-2.37;70.27
54592;BME280;40488;48.558;18.150;2022-12-18T09:12:43;101542.28;;;-2.33;69.89
54592;BME280;40488;48.558;18.150;2022-12-18T09:15:14;101545.88;;;-2.30;70.05
54592;BME280;40488;48.558;18.150;2022-12-18T09:17:42;101538.81;;;-2.35;69.67
54592;BME280;40488;48.558;18.150;2022-12-18T09:20:11;101553.03;;;-2.34;69.52
54592;BME280;40488;48.558;18.150;2022-12-18T09:22:40;101543.63;;;-2.17;69.57
54592;BME280;40488;48.558;18.150;2022-12-18T09:25:09;101552.47;;;-2.00;69.60
54592;BME280;40488;48.558;18.150;2022-12-18T09:27:37;101553.47;;;-2.08;69.49
54592;BME280;40488;48.558;18.150;2022-12-18T09:30:07;101558.97;;;-2.02;69.49
54592;BME280;40488;48.558;18.150;2022-12-18T09:32:37;101559.72;;;-2.03;69.28
54592;BME280;40488;48.558;18.150;2022-12-18T09:35:07;101557.16;;;-1.83;69.25
54592;BME280;40488;48.558;18.150;2022-12-18T09:37:35;101559.56;;;-1.63;69.35
54592;BME280;40488;48.558;18.150;2022-12-18T09:40:05;101555.94;;;-1.34;69.59
54592;BME280;40488;48.558;18.150;2022-12-18T09:42:35;101559.13;;;-1.04;69.36
54592;BME280;40488;48.558;18.150;2022-12-18T09:45:04;101560.84;;;-1.03;68.90
54592;BME280;40488;48.558;18.150;2022-12-18T09:47:36;101549.47;;;-0.99;68.79
54592;BME280;40488;48.558;18.150;2022-12-18T09:50:19;101557.50;;;-1.03;68.10
54592;BME280;40488;48.558;18.150;2022-12-18T09:52:54;101559.09;;;-1.15;67.83
54592;BME280;40488;48.558;18.150;2022-12-18T09:55:29;101553.94;;;-1.17;67.68
54592;BME280;40488;48.558;18.150;2022-12-18T09:58:14;101564.66;;;-1.29;67.17
54592;BME280;40488;48.558;18.150;2022-12-18T10:00:45;101559.84;;;-1.38;67.07
54592;BME280;40488;48.558;18.150;2022-12-18T10:03:15;101553.78;;;-1.08;67.25
54592;BME280;40488;48.558;18.150;2022-12-18T10:05:54;101548.69;;;-1.20;66.34
54592;BME280;40488;48.558;18.150;2022-12-18T10:08:35;101555.66;;;-1.27;66.11
54592;BME280;40488;48.558;18.150;2022-12-18T10:11:21;101543.59;;;-1.21;66.07
54592;BME280;40488;48.558;18.150;2022-12-18T10:13:54;101554.28;;;-1.12;66.04
54592;BME280;40488;48.558;18.150;2022-12-18T10:16:29;101550.56;;;-1.17;65.86
54592;BME280;40488;48.558;18.150;2022-12-18T10:19:13;101546.31;;;-1.18;65.94
54592;BME280;40488;48.558;18.150;2022-12-18T10:21:51;101546.25;;;-1.08;66.06
54592;BME280;40488;48.558;18.150;2022-12-18T10:24:33;101548.03;;;-0.96;65.84
54592;BME280;40488;48.558;18.150;2022-12-18T10:27:12;101543.19;;;-0.83;65.41
54592;BME280;40488;48.558;18.150;2022-12-18T10:29:43;101540.94;;;-0.68;65.10
54592;BME280;40488;48.558;18.150;2022-12-18T10:32:15;101544.97;;;-0.70;64.94
54592;BME280;40488;48.558;18.150;2022-12-18T10:34:46;101539.41;;;-0.66;64.96
54592;BME280;40488;48.558;18.150;2022-12-18T10:37:20;101550.56;;;-0.51;64.82
54592;BME280;40488;48.558;18.150;2022-12-18T10:40:09;101545.56;;;-0.51;64.51
54592;BME280;40488;48.558;18.150;2022-12-18T10:42:46;101538.88;;;-0.62;64.55
54592;BME280;40488;48.558;18.150;2022-12-18T10:45:26;101534.00;;;-0.60;64.42
54592;BME280;40488;48.558;18.150;2022-12-18T10:47:55;101530.50;;;-0.62;64.08
54592;BME280;40488;48.558;18.150;2022-12-18T10:50:26;101522.84;;;-0.64;64.45
54592;BME280;40488;48.558;18.150;2022-12-18T10:53:22;101507.84;;;-0.18;64.21
54592;BME280;40488;48.558;18.150;2022-12-18T10:55:55;101514.41;;;-0.20;63.71
54592;BME280;40488;48.558;18.150;2022-12-18T10:58:30;101517.34;;;-0.25;63.82
54592;BME280;40488;48.558;18.150;2022-12-18T11:01:04;101504.13;;;-0.23;63.84
54592;BME280;40488;48.558;18.150;2022-12-18T11:03:37;101504.56;;;-0.05;63.88
54592;BME280;40488;48.558;18.150;2022-12-18T11:06:10;101507.59;;;0.26;64.14
54592;BME280;40488;48.558;18.150;2022-12-18T11:08:44;101512.31;;;0.46;63.28
54592;BME280;40488;48.558;18.150;2022-12-18T11:11:19;101509.59;;;0.54;63.14
54592;BME280;40488;48.558;18.150;2022-12-18T11:13:58;101503.19;;;0.71;63.73
54592;BME280;40488;48.558;18.150;2022-12-18T11:16:30;101498.06;;;0.70;62.50
54592;BME280;40488;48.558;18.150;2022-12-18T11:19:19;101490.97;;;0.64;62.63
54592;BME280;40488;48.558;18.150;2022-12-18T11:21:50;101481.50;;;0.60;62.23
54592;BME280;40488;48.558;18.150;2022-12-18T11:24:26;101491.19;;;0.67;62.20
54592;BME280;40488;48.558;18.150;2022-12-18T11:26:57;101498.38;;;0.74;62.35
54592;BME280;40488;48.558;18.150;2022-12-18T11:29:38;101501.13;;;0.65;61.89
54592;BME280;40488;48.558;18.150;2022-12-18T11:32:28;101500.25;;;0.65;61.33
54592;BME280;40488;48.558;18.150;2022-12-18T11:37:47;101508.25;;;0.84;62.12
54592;BME280;40488;48.558;18.150;2022-12-18T11:40:22;101505.59;;;0.94;61.57
54592;BME280;40488;48.558;18.150;2022-12-18T11:42:59;101485.03;;;1.00;61.45
54592;BME280;40488;48.558;18.150;2022-12-18T11:45:34;101496.06;;;1.53;62.05
54592;BME280;40488;48.558;18.150;2022-12-18T11:48:06;101486.31;;;1.70;61.75
54592;BME280;40488;48.558;18.150;2022-12-18T11:50:47;101488.41;;;1.90;61.25
54592;BME280;40488;48.558;18.150;2022-12-18T11:53:18;101481.25;;;1.96;60.32
54592;BME280;40488;48.558;18.150;2022-12-18T11:55:56;101488.56;;;2.07;60.64
54592;BME280;40488;48.558;18.150;2022-12-18T11:58:37;101484.38;;;2.33;59.68
54592;BME280;40488;48.558;18.150;2022-12-18T12:01:18;101482.25;;;2.82;60.13
54592;BME280;40488;48.558;18.150;2022-12-18T12:04:11;101482.13;;;3.08;58.56
54592;BME280;40488;48.558;18.150;2022-12-18T12:06:51;101484.06;;;3.41;58.26
54592;BME280;40488;48.558;18.150;2022-12-18T12:09:34;101478.94;;;3.54;57.38
54592;BME280;40488;48.558;18.150;2022-12-18T12:12:22;101491.94;;;4.22;55.79
54592;BME280;40488;48.558;18.150;2022-12-18T12:14:59;101500.06;;;4.79;54.87
54592;BME280;40488;48.558;18.150;2022-12-18T12:17:36;101495.78;;;4.94;54.64
54592;BME280;40488;48.558;18.150;2022-12-18T12:20:12;101493.38;;;4.97;53.67
54592;BME280;40488;48.558;18.150;2022-12-18T12:22:52;101507.31;;;5.39;52.58
54592;BME280;40488;48.558;18.150;2022-12-18T12:25:31;101504.03;;;5.75;51.54
54592;BME280;40488;48.558;18.150;2022-12-18T12:28:13;101502.59;;;5.98;50.54
54592;BME280;40488;48.558;18.150;2022-12-18T12:30:52;101513.56;;;5.97;49.63
54592;BME280;40488;48.558;18.150;2022-12-18T12:33:33;101509.19;;;5.25;50.23
54592;BME280;40488;48.558;18.150;2022-12-18T12:36:14;101509.38;;;4.64;51.77
54592;BME280;40488;48.558;18.150;2022-12-18T12:38:46;101518.63;;;4.17;52.52
54592;BME280;40488;48.558;18.150;2022-12-18T18:50:43;101755.78;;;-5.26;80.39
54592;BME280;40488;48.558;18.150;2022-12-18T18:53:12;101758.56;;;-5.32;80.18
54592;BME280;40488;48.558;18.150;2022-12-18T18:55:41;101764.00;;;-5.36;80.67
54592;BME280;40488;48.558;18.150;2022-12-18T18:58:09;101768.84;;;-5.37;80.65
54592;BME280;40488;48.558;18.150;2022-12-18T19:00:38;101768.53;;;-5.40;80.69
54592;BME280;40488;48.558;18.150;2022-12-18T19:03:07;101780.81;;;-5.42;80.70
54592;BME280;40488;48.558;18.150;2022-12-18T19:05:36;101766.63;;;-5.43;80.27
54592;BME280;40488;48.558;18.150;2022-12-18T19:08:10;101774.53;;;-5.38;80.68
54592;BME280;40488;48.558;18.150;2022-12-18T19:10:39;101770.00;;;-5.43;80.35
54592;BME280;40488;48.558;18.150;2022-12-18T19:13:10;101778.47;;;-5.49;80.29
54592;BME280;40488;48.558;18.150;2022-12-18T19:15:51;101772.75;;;-5.65;80.42
54592;BME280;40488;48.558;18.150;2022-12-18T19:18:21;101768.50;;;-5.75;80.83